Weather at Aero Country Airport

Public forecast

Using degrees Fahrenheit for public forecast. Weather courtesy of forecast.io.

Closest aviation weather report (METAR) to Aero Country Airport

Closest report is Collin County Regional At Mc Kinney Airport, 7.8 nm (14.5 km) ESE. Retrieved 2020/10/24 19:53 UTC (28 minutes ago):

KTKI 241953Z 00000KT 10SM CLR 14/05 A3004 RMK AO2 SLP179 T01440050

Closest aviation forecast (TAF) to Aero Country Airport

Closest forecast is Dallas Love Field, 22.4 nm (41.5 km) SSW. Retrieved 2020/10/24 18:22 UTC (2 hours ago):

TAF KDAL 241720Z 2418/2518 33005KT P6SM SCT035 FM250000 12005KT P6SM FEW035 FM251600 16011KT P6SM SCT035